createdAt,value
2017-11-16T00:00:01.821Z,3.59
2017-11-16T00:01:01.793Z,3.63
2017-11-16T00:02:01.529Z,3.55
2017-11-16T00:03:01.771Z,3.56
2017-11-16T00:04:01.246Z,3.58
2017-11-16T00:05:01.750Z,3.48
2017-11-16T00:06:01.748Z,3.52
2017-11-16T00:07:01.474Z,3.5
2017-11-16T00:08:01.717Z,3.64
2017-11-16T00:09:01.448Z,3.63
2017-11-16T00:10:01.695Z,3.63
2017-11-16T00:11:01.694Z,3.55
2017-11-16T00:12:01.518Z,3.58
2017-11-16T00:13:01.666Z,3.66
2017-11-16T00:14:01.662Z,3.61
2017-11-16T00:15:01.388Z,3.61
2017-11-16T00:16:01.377Z,3.66
2017-11-16T00:17:01.367Z,3.67
2017-11-16T00:18:01.357Z,3.71
2017-11-16T00:19:01.085Z,3.66
2017-11-16T00:20:01.688Z,3.66
2017-11-16T00:21:01.323Z,3.66
2017-11-16T00:22:01.312Z,3.66
2017-11-16T00:23:01.555Z,3.58
2017-11-16T00:24:01.556Z,3.58
2017-11-16T00:25:01.279Z,3.5
2017-11-16T00:26:01.272Z,3.53
2017-11-16T00:27:01.363Z,3.46
2017-11-16T00:28:01.509Z,3.5
2017-11-16T00:29:01.504Z,3.46
2017-11-16T00:30:01.483Z,3.49
2017-11-16T00:31:01.576Z,3.48
2017-11-16T00:32:01.204Z,3.53
2017-11-16T00:33:01.553Z,3.53
2017-11-16T00:34:01.448Z,3.52
2017-11-16T00:35:01.434Z,3.58
2017-11-16T00:36:01.460Z,3.64
2017-11-16T00:37:01.411Z,3.59
2017-11-16T00:38:01.410Z,3.58
2017-11-16T00:39:01.384Z,3.55
2017-11-16T00:40:01.381Z,3.52
2017-11-16T00:41:01.362Z,3.53
2017-11-16T00:42:01.095Z,3.52
2017-11-16T00:43:01.089Z,3.5
2017-11-16T00:44:01.335Z,3.53
2017-11-16T00:45:01.068Z,3.52
2017-11-16T00:46:01.057Z,3.53
2017-11-16T00:47:01.302Z,3.52
2017-11-16T00:48:00.774Z,3.56
2017-11-16T00:49:01.293Z,3.61
2017-11-16T00:50:01.211Z,3.56
2017-11-16T00:51:01.268Z,3.63
2017-11-16T00:52:01.252Z,3.55
2017-11-16T00:53:01.237Z,3.67
2017-11-16T00:54:01.237Z,3.66
2017-11-16T00:55:01.216Z,3.84
2017-11-16T00:56:00.956Z,3.76
2017-11-16T00:57:01.041Z,3.7
2017-11-16T00:58:00.924Z,3.78
2017-11-16T00:59:00.918Z,3.7
2017-11-16T01:00:00.747Z,3.68
2017-11-16T01:01:01.160Z,3.58
2017-11-16T01:02:01.144Z,3.67
2017-11-16T01:03:01.137Z,3.71
2017-11-16T01:04:01.131Z,3.78
2017-11-16T01:05:00.853Z,3.82
2017-11-16T01:06:00.850Z,3.89
2017-11-16T01:07:00.830Z,3.74
2017-11-16T01:08:01.078Z,3.78
2017-11-16T01:09:00.813Z,3.74
2017-11-16T01:10:01.158Z,3.74
2017-11-16T01:11:01.048Z,3.73
2017-11-16T01:12:01.043Z,3.78
2017-11-16T01:13:00.768Z,3.63
2017-11-16T01:14:01.022Z,3.67
2017-11-16T01:15:01.012Z,3.71
2017-11-16T01:16:00.742Z,3.82
2017-11-16T01:17:00.988Z,3.7
2017-11-16T01:18:01.075Z,3.78
2017-11-16T01:19:00.968Z,3.76
2017-11-16T01:20:00.704Z,3.77
2017-11-16T01:21:00.683Z,3.71
2017-11-16T01:22:00.946Z,3.82
2017-11-16T01:23:00.921Z,3.84
2017-11-16T01:24:00.661Z,3.84
2017-11-16T01:25:00.907Z,3.89
2017-11-16T01:26:00.632Z,3.85
2017-11-16T01:27:00.889Z,3.86
2017-11-16T01:28:00.346Z,3.89
2017-11-16T01:29:00.857Z,3.82
2017-11-16T01:30:00.587Z,3.86
2017-11-16T01:31:00.840Z,3.82
2017-11-16T01:32:00.568Z,3.74
2017-11-16T01:33:00.296Z,3.76
2017-11-16T01:34:00.807Z,3.76
2017-11-16T01:35:00.533Z,3.74
2017-11-16T01:36:00.780Z,3.78
2017-11-16T01:37:00.773Z,3.82
2017-11-16T01:38:00.866Z,3.78
2017-11-16T01:39:00.332Z,3.73
2017-11-16T01:40:00.481Z,3.86
2017-11-16T01:41:00.474Z,3.86
2017-11-16T01:42:00.460Z,3.7
2017-11-16T01:43:00.195Z,3.64
2017-11-16T01:44:00.696Z,3.66
2017-11-16T01:45:00.432Z,3.73
2017-11-16T01:46:00.524Z,3.71
2017-11-16T01:47:00.405Z,3.74
2017-11-16T01:48:00.656Z,3.64
2017-11-16T01:49:00.126Z,3.71
2017-11-16T01:50:00.635Z,3.76
2017-11-16T01:51:00.361Z,3.73
2017-11-16T01:52:00.619Z,3.71
2017-11-16T01:53:00.339Z,3.68
2017-11-16T01:54:00.590Z,3.63
2017-11-16T01:55:00.678Z,3.63
2017-11-16T01:56:00.571Z,3.58
2017-11-16T01:57:00.566Z,3.67
2017-11-16T01:58:00.286Z,3.71
2017-11-16T01:59:00.537Z,3.61
2017-11-16T02:00:00.538Z,3.74
2017-11-16T02:01:00.096Z,3.58
2017-11-16T02:02:00.505Z,3.71
2017-11-16T02:03:00.500Z,3.76
2017-11-16T02:04:00.485Z,3.7
2017-11-16T02:05:00.212Z,3.73
2017-11-16T02:06:00.214Z,3.67
2017-11-16T02:07:00.569Z,3.74
2017-11-16T02:07:59.924Z,3.66
2017-11-16T02:09:00.176Z,3.74
2017-11-16T02:10:00.426Z,3.71
2017-11-16T02:11:00.422Z,3.78
2017-11-16T02:12:00.235Z,3.76
2017-11-16T02:13:00.130Z,3.64
2017-11-16T02:14:00.386Z,3.64
2017-11-16T02:15:00.365Z,3.64
2017-11-16T02:16:00.096Z,3.64
2017-11-16T02:17:00.087Z,3.64
2017-11-16T02:17:59.919Z,3.61
2017-11-16T02:18:59.806Z,3.56
2017-11-16T02:20:00.330Z,3.58
2017-11-16T02:21:00.301Z,3.59
2017-11-16T02:22:00.035Z,3.61
2017-11-16T02:23:00.304Z,3.66
2017-11-16T02:24:00.266Z,3.64
2017-11-16T02:25:00.377Z,3.71
2017-11-16T02:26:00.263Z,3.63
2017-11-16T02:26:59.981Z,3.73
2017-11-16T02:28:00.234Z,3.73
2017-11-16T02:29:00.224Z,3.67
2017-11-16T02:30:00.308Z,3.64
2017-11-16T02:30:59.687Z,3.53
2017-11-16T02:32:00.187Z,3.55
2017-11-16T02:33:00.193Z,3.53
2017-11-16T02:33:59.907Z,3.67
2017-11-16T02:35:00.158Z,3.67
2017-11-16T02:35:59.888Z,3.68
2017-11-16T02:37:00.147Z,3.66
2017-11-16T02:37:59.863Z,3.71
2017-11-16T02:39:00.125Z,3.63
2017-11-16T02:39:59.849Z,3.53
2017-11-16T02:41:00.088Z,3.5
2017-11-16T02:42:00.087Z,3.55
2017-11-16T02:43:00.169Z,3.59
2017-11-16T02:43:59.798Z,3.61
2017-11-16T02:44:59.789Z,3.74
2017-11-16T02:46:00.052Z,3.64
2017-11-16T02:46:59.508Z,3.61
2017-11-16T02:48:00.030Z,3.64
2017-11-16T02:48:59.745Z,3.61
2017-11-16T02:49:59.745Z,3.63
2017-11-16T02:50:59.829Z,3.64
2017-11-16T02:51:59.716Z,3.64
2017-11-16T02:52:59.974Z,3.78
2017-11-16T02:53:59.466Z,3.76
2017-11-16T02:55:00.043Z,3.74
2017-11-16T02:55:59.675Z,3.78
2017-11-16T02:56:59.925Z,3.84
2017-11-16T02:57:59.916Z,3.85
2017-11-16T02:58:59.897Z,3.74
2017-11-16T02:59:59.371Z,3.61
2017-11-16T03:00:59.877Z,3.58
2017-11-16T03:01:59.871Z,3.61
2017-11-16T03:02:59.594Z,3.58
2017-11-16T03:03:59.844Z,3.66
2017-11-16T03:04:59.937Z,3.61
2017-11-16T03:05:59.829Z,3.61
2017-11-16T03:06:59.556Z,3.52
2017-11-16T03:07:59.553Z,3.49
2017-11-16T03:08:59.799Z,3.55
2017-11-16T03:09:59.544Z,3.46
2017-11-16T03:10:59.514Z,3.48
2017-11-16T03:11:59.760Z,3.41
2017-11-16T03:12:59.767Z,3.45
2017-11-16T03:13:59.494Z,3.43
2017-11-16T03:14:59.580Z,3.41
2017-11-16T03:15:59.714Z,3.43
2017-11-16T03:16:59.724Z,3.46
2017-11-16T03:17:59.179Z,3.49
2017-11-16T03:18:59.426Z,3.53
2017-11-16T03:19:59.688Z,3.43
2017-11-16T03:20:59.665Z,3.58
2017-11-16T03:21:59.668Z,3.56
2017-11-16T03:22:59.642Z,3.52
2017-11-16T03:23:59.374Z,3.52
2017-11-16T03:24:59.630Z,3.56
2017-11-16T03:25:59.610Z,3.5
2017-11-16T03:26:59.492Z,3.5
2017-11-16T03:27:59.593Z,3.55
2017-11-16T03:28:59.323Z,3.52
2017-11-16T03:29:59.570Z,3.52
2017-11-16T03:30:59.566Z,3.58
2017-11-16T03:31:59.561Z,3.58
2017-11-16T03:32:59.550Z,3.59
2017-11-16T03:33:59.371Z,3.66
2017-11-16T03:34:59.262Z,3.66
2017-11-16T03:35:59.249Z,3.63
2017-11-16T03:36:59.500Z,3.63
2017-11-16T03:37:58.968Z,3.63
2017-11-16T03:38:59.480Z,3.66
2017-11-16T03:39:59.203Z,3.67
2017-11-16T03:40:59.460Z,3.61
2017-11-16T03:41:59.441Z,3.63
2017-11-16T03:42:59.436Z,3.64
2017-11-16T03:43:59.189Z,3.59
2017-11-16T03:44:59.148Z,3.74
2017-11-16T03:45:59.141Z,3.7
2017-11-16T03:46:58.870Z,3.7
2017-11-16T03:47:59.380Z,3.68
2017-11-16T03:48:59.367Z,3.74
2017-11-16T03:49:59.099Z,3.74
2017-11-16T03:50:59.087Z,3.71
2017-11-16T03:51:59.176Z,3.78
2017-11-16T03:52:59.342Z,3.67
2017-11-16T03:53:59.055Z,3.73
2017-11-16T03:54:59.304Z,3.76
2017-11-16T03:55:59.296Z,3.74
2017-11-16T03:56:59.023Z,3.76
2017-11-16T03:57:59.010Z,3.78
2017-11-16T03:58:59.014Z,3.85
2017-11-16T03:59:59.089Z,3.74
2017-11-16T04:00:59.339Z,3.78
2017-11-16T04:01:58.970Z,3.84
2017-11-16T04:02:58.961Z,3.91
2017-11-16T04:03:59.218Z,3.92
2017-11-16T04:04:59.200Z,3.95
2017-11-16T04:05:58.937Z,3.89
2017-11-16T04:06:58.914Z,3.89
2017-11-16T04:07:58.905Z,3.91
2017-11-16T04:08:59.155Z,3.89
2017-11-16T04:09:58.890Z,3.94
2017-11-16T04:10:58.873Z,3.84
2017-11-16T04:11:58.886Z,3.71
2017-11-16T04:12:58.592Z,3.76
2017-11-16T04:13:59.105Z,3.78
2017-11-16T04:14:59.100Z,3.76
2017-11-16T04:15:59.079Z,3.74
2017-11-16T04:16:58.550Z,3.73
2017-11-16T04:17:58.802Z,3.84
2017-11-16T04:18:59.046Z,3.78
2017-11-16T04:19:59.037Z,3.74
2017-11-16T04:20:59.026Z,3.68
2017-11-16T04:21:59.026Z,3.78
2017-11-16T04:22:59.012Z,3.88
2017-11-16T04:23:58.997Z,3.82
2017-11-16T04:24:58.993Z,3.73
2017-11-16T04:25:58.976Z,3.84
2017-11-16T04:26:58.967Z,3.86
2017-11-16T04:27:58.699Z,3.84
2017-11-16T04:28:58.684Z,3.86
2017-11-16T04:29:58.672Z,3.85
2017-11-16T04:30:58.665Z,3.82
2017-11-16T04:31:59.005Z,3.85
2017-11-16T04:32:58.899Z,3.76
2017-11-16T04:33:58.634Z,3.73
2017-11-16T04:34:58.882Z,3.78
2017-11-16T04:35:58.965Z,3.74
2017-11-16T04:36:58.860Z,3.78
2017-11-16T04:37:58.327Z,3.76
2017-11-16T04:38:59.038Z,3.77
2017-11-16T04:39:58.832Z,3.74
2017-11-16T04:40:58.561Z,3.82
2017-11-16T04:41:58.810Z,3.76
2017-11-16T04:42:58.539Z,3.78
2017-11-16T04:43:58.783Z,3.78
2017-11-16T04:44:58.254Z,3.84
2017-11-16T04:45:58.501Z,3.89
2017-11-16T04:46:58.497Z,3.81
2017-11-16T04:47:58.737Z,3.84
2017-11-16T04:48:58.471Z,3.92
2017-11-16T04:49:58.458Z,3.85
2017-11-16T04:50:58.711Z,3.82
2017-11-16T04:51:58.705Z,3.84
2017-11-16T04:52:58.427Z,3.91
2017-11-16T04:53:58.684Z,3.92
2017-11-16T04:54:58.667Z,3.92
2017-11-16T04:55:58.661Z,3.92
2017-11-16T04:56:58.651Z,3.99
2017-11-16T04:57:58.376Z,3.94
2017-11-16T04:58:58.617Z,4.06
2017-11-16T04:59:58.612Z,4.06
2017-11-16T05:00:58.344Z,4.07
2017-11-16T05:01:58.334Z,4.04
2017-11-16T05:02:58.329Z,4.06
2017-11-16T05:03:58.564Z,4.09
2017-11-16T05:04:58.302Z,4.07
2017-11-16T05:05:58.546Z,4.1
2017-11-16T05:06:58.278Z,4.13
2017-11-16T05:07:58.375Z,4.13
2017-11-16T05:08:58.517Z,4.09
2017-11-16T05:09:57.988Z,4.06
2017-11-16T05:10:58.235Z,4.09
2017-11-16T05:11:58.225Z,4.06
2017-11-16T05:12:58.317Z,4.16
2017-11-16T05:13:58.472Z,4.06
2017-11-16T05:14:58.449Z,4.13
2017-11-16T05:15:58.546Z,4.06
2017-11-16T05:16:58.170Z,4.03
2017-11-16T05:17:58.160Z,4.06
2017-11-16T05:18:58.410Z,4.09
2017-11-16T05:19:58.136Z,4.14
2017-11-16T05:20:58.386Z,4.14
2017-11-16T05:21:58.382Z,4.13
2017-11-16T05:22:58.366Z,4.16
2017-11-16T05:23:58.358Z,4.13
2017-11-16T05:24:58.351Z,4.12
2017-11-16T05:25:58.336Z,4.13
2017-11-16T05:26:58.428Z,4.06
2017-11-16T05:27:58.054Z,4.09
2017-11-16T05:28:58.048Z,4.13
2017-11-16T05:29:58.387Z,4.16
2017-11-16T05:30:58.035Z,4.13
2017-11-16T05:31:58.022Z,4.13
2017-11-16T05:32:58.004Z,4.09
2017-11-16T05:33:58.299Z,4.14
2017-11-16T05:34:57.980Z,4.12
2017-11-16T05:35:57.974Z,4.14
2017-11-16T05:36:58.218Z,4.14
2017-11-16T05:37:57.955Z,4.14
2017-11-16T05:38:57.958Z,4.12
2017-11-16T05:39:57.670Z,4.07
2017-11-16T05:40:57.759Z,4.18
2017-11-16T05:41:58.172Z,4.04
2017-11-16T05:42:58.174Z,4.2
2017-11-16T05:43:58.146Z,4.18
2017-11-16T05:44:58.136Z,4.07
2017-11-16T05:45:57.865Z,4.07
2017-11-16T05:46:58.137Z,4.07
2017-11-16T05:47:58.100Z,4.02
2017-11-16T05:48:57.833Z,4.06
2017-11-16T05:49:58.079Z,3.96
2017-11-16T05:50:58.067Z,3.92
2017-11-16T05:51:58.062Z,3.85
2017-11-16T05:52:58.063Z,3.84
2017-11-16T05:53:57.781Z,3.82
2017-11-16T05:54:58.027Z,3.88
2017-11-16T05:55:58.021Z,3.76
2017-11-16T05:56:57.488Z,3.7
2017-11-16T05:57:57.738Z,3.78
2017-11-16T05:58:57.727Z,3.76
2017-11-16T05:59:57.973Z,3.85
2017-11-16T06:00:57.966Z,3.92
2017-11-16T06:01:57.696Z,3.78
2017-11-16T06:02:57.945Z,3.84
2017-11-16T06:03:57.775Z,3.92
2017-11-16T06:04:57.929Z,3.86
2017-11-16T06:05:58.021Z,3.88
2017-11-16T06:06:57.906Z,3.88
2017-11-16T06:07:57.895Z,4
2017-11-16T06:08:57.628Z,3.92
2017-11-16T06:09:57.879Z,3.92
2017-11-16T06:10:57.857Z,3.96
2017-11-16T06:11:57.857Z,4.02
2017-11-16T06:12:57.837Z,4.06
2017-11-16T06:13:57.569Z,3.94
2017-11-16T06:14:57.816Z,3.96
2017-11-16T06:15:57.917Z,4
2017-11-16T06:16:57.545Z,3.91
2017-11-16T06:17:57.796Z,3.88
2017-11-16T06:18:57.515Z,3.78
2017-11-16T06:19:57.773Z,3.76
2017-11-16T06:20:57.503Z,3.78
2017-11-16T06:21:57.589Z,3.81
2017-11-16T06:22:57.738Z,3.89
2017-11-16T06:23:57.723Z,3.91
2017-11-16T06:24:57.461Z,3.91
2017-11-16T06:25:57.442Z,3.85
2017-11-16T06:26:57.428Z,3.82
2017-11-16T06:27:57.420Z,3.84
2017-11-16T06:28:57.679Z,3.76
2017-11-16T06:29:57.399Z,3.71
2017-11-16T06:30:57.650Z,3.64
2017-11-16T06:31:57.375Z,3.64
2017-11-16T06:32:57.365Z,3.56
2017-11-16T06:33:57.456Z,3.5
2017-11-16T06:34:57.610Z,3.5
2017-11-16T06:35:57.609Z,3.55
2017-11-16T06:36:57.325Z,3.45
2017-11-16T06:37:57.682Z,3.55
2017-11-16T06:38:57.670Z,3.53
2017-11-16T06:39:57.295Z,3.67
2017-11-16T06:40:57.282Z,3.68
2017-11-16T06:41:57.280Z,3.73
2017-11-16T06:42:57.266Z,3.76
2017-11-16T06:43:57.253Z,3.76
2017-11-16T06:44:57.084Z,3.81
2017-11-16T06:45:57.329Z,3.71
2017-11-16T06:46:57.222Z,3.84
2017-11-16T06:47:57.567Z,3.74
2017-11-16T06:48:57.198Z,3.82
2017-11-16T06:49:57.449Z,3.73
2017-11-16T06:50:57.176Z,3.73
2017-11-16T06:51:57.166Z,3.71
2017-11-16T06:52:57.153Z,3.68
2017-11-16T06:53:57.401Z,3.64
2017-11-16T06:54:57.249Z,3.61
2017-11-16T06:55:57.121Z,3.66
2017-11-16T06:56:57.378Z,3.58
2017-11-16T06:57:57.370Z,3.58
2017-11-16T06:58:57.353Z,3.59
2017-11-16T06:59:57.338Z,3.63
2017-11-16T07:00:57.070Z,3.61
2017-11-16T07:01:57.316Z,3.67
2017-11-16T07:02:57.058Z,3.64
2017-11-16T07:03:57.313Z,3.66
2017-11-16T07:04:57.293Z,3.64
2017-11-16T07:05:57.273Z,3.68
2017-11-16T07:06:57.005Z,3.61
2017-11-16T07:07:56.993Z,3.64
2017-11-16T07:08:57.249Z,3.66
2017-11-16T07:09:56.976Z,3.61
2017-11-16T07:10:56.966Z,3.58
2017-11-16T07:11:56.975Z,3.58
2017-11-16T07:12:56.946Z,3.61
2017-11-16T07:13:57.188Z,3.67
2017-11-16T07:14:56.921Z,3.67
2017-11-16T07:15:57.169Z,3.66
2017-11-16T07:16:56.901Z,3.76
2017-11-16T07:17:57.151Z,3.76
2017-11-16T07:18:57.137Z,3.76
2017-11-16T07:19:56.877Z,3.67
2017-11-16T07:20:57.120Z,3.77
2017-11-16T07:21:56.849Z,3.86
2017-11-16T07:22:57.095Z,3.91
2017-11-16T07:23:57.087Z,3.78
2017-11-16T07:24:57.078Z,3.81
2017-11-16T07:25:56.807Z,3.81
2017-11-16T07:26:57.049Z,3.84
2017-11-16T07:27:57.049Z,3.85
2017-11-16T07:28:57.043Z,3.86
2017-11-16T07:29:56.771Z,3.77
2017-11-16T07:30:56.751Z,3.81
2017-11-16T07:31:56.736Z,3.94
2017-11-16T07:32:56.990Z,3.89
2017-11-16T07:33:56.980Z,3.95
2017-11-16T07:34:56.973Z,3.86
2017-11-16T07:35:56.953Z,3.85
2017-11-16T07:36:56.680Z,3.82
2017-11-16T07:37:56.670Z,3.81
2017-11-16T07:38:56.922Z,3.73
2017-11-16T07:39:56.915Z,3.7
2017-11-16T07:40:56.899Z,3.82
2017-11-16T07:41:56.893Z,3.74
2017-11-16T07:42:56.357Z,3.82
2017-11-16T07:43:56.613Z,3.91
2017-11-16T07:44:56.861Z,4
2017-11-16T07:45:56.326Z,4.03
2017-11-16T07:46:56.576Z,4
2017-11-16T07:47:56.932Z,4.04
2017-11-16T07:48:56.550Z,4.13
2017-11-16T07:49:56.542Z,4.13
2017-11-16T07:50:56.533Z,4.1
2017-11-16T07:51:56.262Z,4.07
2017-11-16T07:52:56.768Z,4.06
2017-11-16T07:53:56.766Z,4.2
2017-11-16T07:54:56.747Z,4.22
2017-11-16T07:55:56.739Z,4.18
2017-11-16T07:56:56.731Z,4.09
2017-11-16T07:57:56.207Z,4.16
2017-11-16T07:58:56.813Z,4.22
2017-11-16T07:59:56.694Z,4.25
2017-11-16T08:00:56.433Z,4.2
2017-11-16T08:01:56.417Z,4.03
2017-11-16T08:02:56.410Z,4.16
2017-11-16T08:03:56.398Z,4.09
2017-11-16T08:04:56.481Z,4.03
2017-11-16T08:05:56.372Z,4.09
2017-11-16T08:06:56.617Z,4.03
2017-11-16T08:07:56.631Z,4.04
2017-11-16T08:08:56.340Z,4.07
2017-11-16T08:09:56.592Z,4.09
2017-11-16T08:10:56.332Z,4.07
2017-11-16T08:11:56.308Z,4.14
2017-11-16T08:12:56.316Z,4.18
2017-11-16T08:13:56.289Z,4.12
2017-11-16T08:14:56.280Z,4.14
2017-11-16T08:15:56.528Z,4.16
2017-11-16T08:16:56.259Z,4.13
2017-11-16T08:17:56.242Z,4.21
2017-11-16T08:18:56.496Z,4.18
2017-11-16T08:19:56.478Z,4.12
2017-11-16T08:20:56.469Z,4.16
2017-11-16T08:21:56.462Z,4.13
2017-11-16T08:22:56.453Z,4.21
2017-11-16T08:23:56.490Z,4.09
2017-11-16T08:24:56.168Z,4.18
2017-11-16T08:25:56.267Z,4.09
2017-11-16T08:26:56.415Z,4.12
2017-11-16T08:27:55.885Z,4.06
2017-11-16T08:28:56.395Z,4.09
2017-11-16T08:29:56.377Z,4.06
2017-11-16T08:30:56.112Z,3.99
2017-11-16T08:31:56.198Z,4.04
2017-11-16T08:32:56.445Z,4.06
2017-11-16T08:33:56.342Z,4.13
2017-11-16T08:34:56.329Z,4.06
2017-11-16T08:35:56.313Z,4.06
2017-11-16T08:36:56.044Z,4.06
2017-11-16T08:37:56.136Z,4.09
2017-11-16T08:38:56.028Z,4.1
2017-11-16T08:39:56.010Z,4.1
2017-11-16T08:40:56.257Z,4.21
2017-11-16T08:41:55.999Z,4.09
2017-11-16T08:42:56.244Z,4.1
2017-11-16T08:43:55.972Z,4.06
2017-11-16T08:44:55.964Z,3.94
2017-11-16T08:45:56.210Z,4.04
2017-11-16T08:46:55.680Z,4.09
2017-11-16T08:47:55.937Z,4.09
2017-11-16T08:48:55.663Z,4.13
2017-11-16T08:49:56.172Z,4.18
2017-11-16T08:50:55.896Z,4.03
2017-11-16T08:51:56.144Z,4.02
2017-11-16T08:52:55.874Z,3.95
2017-11-16T08:53:55.874Z,3.92
2017-11-16T08:54:55.857Z,4
2017-11-16T08:55:55.842Z,3.95
2017-11-16T08:56:55.939Z,3.86
2017-11-16T08:57:56.187Z,3.88
2017-11-16T08:58:55.812Z,3.86
2017-11-16T08:59:55.800Z,3.92
2017-11-16T09:00:56.047Z,3.92
2017-11-16T09:01:55.521Z,3.84
2017-11-16T09:02:55.769Z,3.91
2017-11-16T09:03:55.761Z,3.77
2017-11-16T09:04:55.748Z,3.74
2017-11-16T09:05:55.999Z,3.73
2017-11-16T09:06:55.729Z,3.64
2017-11-16T09:07:56.074Z,3.74
2017-11-16T09:08:55.444Z,3.73
2017-11-16T09:09:55.706Z,3.64
2017-11-16T09:10:55.951Z,3.67
2017-11-16T09:11:55.936Z,3.67
2017-11-16T09:12:55.932Z,3.7
2017-11-16T09:13:55.393Z,3.67
2017-11-16T09:14:55.903Z,3.64
2017-11-16T09:15:55.898Z,3.64
2017-11-16T09:16:55.900Z,3.68
2017-11-16T09:17:55.609Z,3.78
2017-11-16T09:18:55.605Z,3.82
2017-11-16T09:19:55.847Z,3.73
2017-11-16T09:20:55.601Z,3.81
2017-11-16T09:21:55.596Z,3.88
2017-11-16T09:22:55.556Z,3.85
2017-11-16T09:23:55.906Z,3.76
2017-11-16T09:24:55.892Z,3.74
2017-11-16T09:25:55.530Z,3.76
2017-11-16T09:26:55.516Z,3.77
2017-11-16T09:27:55.511Z,3.78
2017-11-16T09:28:55.792Z,3.73
2017-11-16T09:29:55.775Z,3.77
2017-11-16T09:30:55.728Z,3.78
2017-11-16T09:31:55.601Z,3.74
2017-11-16T09:32:55.709Z,3.78
2017-11-16T09:33:55.456Z,3.73
2017-11-16T09:34:55.693Z,3.71
2017-11-16T09:35:55.431Z,3.67
2017-11-16T09:36:55.156Z,3.61
2017-11-16T09:37:55.762Z,3.74
2017-11-16T09:38:55.135Z,3.63
2017-11-16T09:39:55.382Z,3.74
2017-11-16T09:40:55.378Z,3.81
2017-11-16T09:41:55.628Z,3.77
2017-11-16T09:42:55.355Z,3.92
2017-11-16T09:43:55.343Z,3.96
2017-11-16T09:44:55.597Z,4.03
2017-11-16T09:45:55.059Z,4.04
2017-11-16T09:46:55.566Z,4.02
2017-11-16T09:47:55.559Z,4
2017-11-16T09:48:55.546Z,3.94
2017-11-16T09:49:55.286Z,3.99
2017-11-16T09:50:55.531Z,4.02
2017-11-16T09:51:55.255Z,4.07
2017-11-16T09:52:55.256Z,4.12
2017-11-16T09:53:55.236Z,4.07
2017-11-16T09:54:55.482Z,4.07
2017-11-16T09:55:55.483Z,4.1
2017-11-16T09:56:55.462Z,4.04
2017-11-16T09:57:55.191Z,4.04
2017-11-16T09:58:55.185Z,4.16
2017-11-16T09:59:55.430Z,4.07
2017-11-16T10:00:55.469Z,4.12
2017-11-16T10:01:55.417Z,4.18
2017-11-16T10:02:55.138Z,4.02
2017-11-16T10:03:55.389Z,4.14
2017-11-16T10:04:55.123Z,4.09
2017-11-16T10:05:55.107Z,4.04
2017-11-16T10:06:55.359Z,4.04
2017-11-16T10:07:55.345Z,4.07
2017-11-16T10:08:55.445Z,4.18
2017-11-16T10:09:55.066Z,4.13
2017-11-16T10:10:55.327Z,4.18
2017-11-16T10:11:55.141Z,4.21
2017-11-16T10:12:55.304Z,4.24
2017-11-16T10:13:55.285Z,4.24
2017-11-16T10:14:55.271Z,4.4
2017-11-16T10:15:54.999Z,4.4
2017-11-16T10:16:54.730Z,4.38
2017-11-16T10:17:54.978Z,4.34
2017-11-16T10:18:55.244Z,4.3
2017-11-16T10:19:55.224Z,4.3
2017-11-16T10:20:55.211Z,4.27
2017-11-16T10:21:55.193Z,4.38
2017-11-16T10:22:55.189Z,4.27
2017-11-16T10:23:55.174Z,4.31
2017-11-16T10:24:54.901Z,4.27
2017-11-16T10:25:55.251Z,4.22
2017-11-16T10:26:54.983Z,4.3
2017-11-16T10:27:54.870Z,4.22
2017-11-16T10:28:55.124Z,4.27
2017-11-16T10:29:54.589Z,4.21
2017-11-16T10:30:55.101Z,4.25
2017-11-16T10:31:55.089Z,4.25
2017-11-16T10:32:55.112Z,4.27
2017-11-16T10:33:55.084Z,4.24
2017-11-16T10:34:54.800Z,4.09
2017-11-16T10:35:54.791Z,4.12
2017-11-16T10:36:54.779Z,4.07
2017-11-16T10:37:54.762Z,4.09
2017-11-16T10:38:54.753Z,4.04
2017-11-16T10:39:55.006Z,4.07
2017-11-16T10:40:54.735Z,3.89
2017-11-16T10:41:54.465Z,4
2017-11-16T10:42:54.972Z,3.89
2017-11-16T10:43:54.441Z,3.86
2017-11-16T10:44:54.951Z,3.89
2017-11-16T10:45:54.681Z,3.86
2017-11-16T10:46:54.780Z,3.94
2017-11-16T10:47:54.954Z,4.02
2017-11-16T10:48:54.912Z,4.06
2017-11-16T10:49:54.640Z,4.07
2017-11-16T10:50:54.888Z,4.1
2017-11-16T10:51:54.921Z,4.24
2017-11-16T10:52:54.868Z,4.24
2017-11-16T10:53:54.605Z,4.22
2017-11-16T10:54:54.977Z,4.34
2017-11-16T10:55:54.838Z,4.42
2017-11-16T10:56:54.571Z,4.43
2017-11-16T10:57:54.553Z,4.38
2017-11-16T10:58:54.851Z,4.39
2017-11-16T10:59:54.638Z,4.32
2017-11-16T11:00:54.786Z,4.22
2017-11-16T11:01:54.769Z,4.38
2017-11-16T11:02:54.760Z,4.4
2017-11-16T11:03:54.751Z,4.39
2017-11-16T11:04:54.481Z,4.34
2017-11-16T11:05:54.728Z,4.38
2017-11-16T11:06:54.459Z,4.24
2017-11-16T11:07:54.450Z,4.22
2017-11-16T11:08:54.695Z,4.24
2017-11-16T11:09:54.694Z,4.24
2017-11-16T11:10:54.415Z,4.18
2017-11-16T11:11:54.666Z,4.21
2017-11-16T11:12:54.395Z,4.25
2017-11-16T11:13:54.382Z,4.22
2017-11-16T11:14:54.371Z,4.16
2017-11-16T11:15:54.617Z,4.25
2017-11-16T11:16:54.092Z,4.38
2017-11-16T11:17:54.603Z,4.45
2017-11-16T11:18:54.338Z,4.46
2017-11-16T11:19:54.579Z,4.49
2017-11-16T11:20:54.568Z,4.5
2017-11-16T11:21:54.560Z,4.4
2017-11-16T11:22:54.550Z,4.48
2017-11-16T11:23:54.539Z,4.46
2017-11-16T11:24:54.269Z,4.38
2017-11-16T11:25:54.513Z,4.38
2017-11-16T11:26:54.507Z,4.36
2017-11-16T11:27:54.233Z,4.49
2017-11-16T11:28:54.344Z,4.52
2017-11-16T11:29:54.475Z,4.48
2017-11-16T11:30:54.462Z,4.5
2017-11-16T11:31:54.472Z,4.49
2017-11-16T11:32:53.922Z,4.49
2017-11-16T11:33:54.434Z,4.49
2017-11-16T11:34:54.261Z,4.39
2017-11-16T11:35:54.419Z,4.42
2017-11-16T11:36:54.149Z,4.42
2017-11-16T11:37:54.393Z,4.39
2017-11-16T11:38:54.381Z,4.45
2017-11-16T11:39:54.373Z,4.34
2017-11-16T11:40:54.102Z,4.43
2017-11-16T11:41:54.086Z,4.38
2017-11-16T11:42:54.338Z,4.43
2017-11-16T11:43:54.327Z,4.43
2017-11-16T11:44:54.054Z,4.38
2017-11-16T11:45:54.319Z,4.32
2017-11-16T11:46:54.312Z,4.4
2017-11-16T11:47:54.124Z,4.46
2017-11-16T11:48:54.291Z,4.45
2017-11-16T11:49:54.002Z,4.48
2017-11-16T11:50:54.259Z,4.53
2017-11-16T11:51:54.237Z,4.46
2017-11-16T11:52:54.235Z,4.49
2017-11-16T11:53:54.220Z,4.46
2017-11-16T11:54:54.211Z,4.48
2017-11-16T11:55:54.204Z,4.5
2017-11-16T11:56:53.929Z,4.4
2017-11-16T11:57:53.914Z,4.39
2017-11-16T11:58:54.168Z,4.45
2017-11-16T11:59:54.157Z,4.42
2017-11-16T12:00:54.148Z,4.36
2017-11-16T12:01:54.140Z,4.36
2017-11-16T12:02:53.865Z,4.4
2017-11-16T12:03:53.894Z,4.46
2017-11-16T12:04:53.842Z,4.45
2017-11-16T12:05:54.097Z,4.42
2017-11-16T12:06:54.083Z,4.39
2017-11-16T12:07:53.811Z,4.43
2017-11-16T12:08:54.071Z,4.4
2017-11-16T12:09:53.793Z,4.43
2017-11-16T12:10:53.779Z,4.4
2017-11-16T12:11:54.038Z,4.28
2017-11-16T12:12:53.760Z,4.24
2017-11-16T12:13:54.018Z,4.3
2017-11-16T12:14:53.998Z,4.25
2017-11-16T12:15:53.983Z,4.27
2017-11-16T12:16:53.982Z,4.28
2017-11-16T12:17:54.067Z,4.31
2017-11-16T12:18:53.440Z,4.2
2017-11-16T12:19:53.686Z,4.28
2017-11-16T12:20:53.687Z,4.2
2017-11-16T12:21:54.030Z,4.31
2017-11-16T12:22:53.911Z,4.36
2017-11-16T12:23:53.900Z,4.39
2017-11-16T12:24:53.635Z,4.39
2017-11-16T12:25:53.619Z,4.43
2017-11-16T12:26:53.871Z,4.43
2017-11-16T12:27:53.869Z,4.4
2017-11-16T12:28:53.849Z,4.34
2017-11-16T12:29:53.852Z,4.32
2017-11-16T12:30:53.867Z,4.38
2017-11-16T12:31:53.820Z,4.39
2017-11-16T12:32:53.847Z,4.25
2017-11-16T12:33:53.540Z,4.32
2017-11-16T12:34:53.788Z,4.34
2017-11-16T12:35:53.786Z,4.38
2017-11-16T12:36:53.765Z,4.42
2017-11-16T12:37:53.247Z,4.34
2017-11-16T12:38:53.594Z,4.39
2017-11-16T12:39:53.473Z,4.34
2017-11-16T12:40:53.726Z,4.42
2017-11-16T12:41:53.455Z,4.4
2017-11-16T12:42:53.711Z,4.4
2017-11-16T12:43:53.691Z,4.36
2017-11-16T12:44:53.434Z,4.36
2017-11-16T12:45:53.671Z,4.4
2017-11-16T12:46:53.665Z,4.42
2017-11-16T12:47:53.660Z,4.42
2017-11-16T12:48:53.639Z,4.45
2017-11-16T12:49:53.743Z,4.34
2017-11-16T12:50:53.200Z,4.42
2017-11-16T12:51:53.607Z,4.38
2017-11-16T12:52:53.598Z,4.42
2017-11-16T12:53:53.327Z,4.39
2017-11-16T12:54:53.327Z,4.45
2017-11-16T12:55:53.576Z,4.45
2017-11-16T12:56:53.558Z,4.4
2017-11-16T12:57:53.547Z,4.36
2017-11-16T12:58:53.536Z,4.36
2017-11-16T12:59:53.519Z,4.38
2017-11-16T13:00:52.999Z,4.4
2017-11-16T13:01:53.504Z,4.3
2017-11-16T13:02:53.234Z,4.25
2017-11-16T13:03:53.223Z,4.22
2017-11-16T13:04:53.214Z,4.22
2017-11-16T13:05:53.198Z,4.31
2017-11-16T13:06:53.469Z,4.4
2017-11-16T13:07:53.444Z,4.4
2017-11-16T13:08:53.181Z,4.46
2017-11-16T13:09:53.427Z,4.42
2017-11-16T13:10:53.449Z,4.42
2017-11-16T13:11:53.399Z,4.32
2017-11-16T13:12:53.387Z,4.38
2017-11-16T13:13:53.374Z,4.38
2017-11-16T13:14:53.372Z,4.36
2017-11-16T13:15:53.106Z,4.22
2017-11-16T13:16:53.342Z,4.24
2017-11-16T13:17:53.337Z,4.21
2017-11-16T13:18:53.062Z,4.21
2017-11-16T13:19:53.055Z,4.28
2017-11-16T13:20:53.041Z,4.21